sensor_id;sensor_type;location;lat;lon;timestamp;temperature;humidity
35258;DHT22;21385;50.878;8.050;2023-02-01T00:00:20;5.60;99.90
35258;DHT22;21385;50.878;8.050;2023-02-01T00:02:45;5.60;99.90
35258;DHT22;21385;50.878;8.050;2023-02-01T00:05:11;5.60;99.90
35258;DHT22;21385;50.878;8.050;2023-02-01T00:07:37;5.60;99.90
35258;DHT22;21385;50.878;8.050;2023-02-01T00:10:04;5.60;99.90
35258;DHT22;21385;50.878;8.050;2023-02-01T00:12:31;5.60;99.90
35258;DHT22;21385;50.878;8.050;2023-02-01T00:14:57;5.60;99.90
35258;DHT22;21385;50.878;8.050;2023-02-01T00:17:23;5.60;99.90
35258;DHT22;21385;50.878;8.050;2023-02-01T00:19:48;5.60;99.90
35258;DHT22;21385;50.878;8.050;2023-02-01T00:22:14;5.70;99.90
35258;DHT22;21385;50.878;8.050;2023-02-01T00:24:39;5.70;99.90
35258;DHT22;21385;50.878;8.050;2023-02-01T00:27:12;5.80;99.90
35258;DHT22;21385;50.878;8.050;2023-02-01T00:29:43;5.70;99.90
35258;DHT22;21385;50.878;8.050;2023-02-01T00:32:09;5.80;99.90
35258;DHT22;21385;50.878;8.050;2023-02-01T00:34:35;5.70;99.90
35258;DHT22;21385;50.878;8.050;2023-02-01T00:37:00;5.80;99.90
35258;DHT22;21385;50.878;8.050;2023-02-01T00:39:26;5.80;99.90
35258;DHT22;21385;50.878;8.050;2023-02-01T00:41:51;5.80;99.90
35258;DHT22;21385;50.878;8.050;2023-02-01T00:44:17;5.80;99.90
35258;DHT22;21385;50.878;8.050;2023-02-01T00:46:43;5.80;99.90
35258;DHT22;21385;50.878;8.050;2023-02-01T00:49:08;5.80;99.90
35258;DHT22;21385;50.878;8.050;2023-02-01T00:51:34;5.90;99.90
35258;DHT22;21385;50.878;8.050;2023-02-01T00:54:00;6.00;99.90
35258;DHT22;21385;50.878;8.050;2023-02-01T00:56:25;6.00;99.90
35258;DHT22;21385;50.878;8.050;2023-02-01T00:58:53;6.00;99.90
35258;DHT22;21385;50.878;8.050;2023-02-01T01:01:24;6.00;99.90
35258;DHT22;21385;50.878;8.050;2023-02-01T01:03:55;5.90;99.90
35258;DHT22;21385;50.878;8.050;2023-02-01T01:06:27;5.90;99.90
35258;DHT22;21385;50.878;8.050;2023-02-01T01:08:55;5.90;99.90
35258;DHT22;21385;50.878;8.050;2023-02-01T01:11:26;6.00;99.90
35258;DHT22;21385;50.878;8.050;2023-02-01T01:13:53;5.90;99.90
35258;DHT22;21385;50.878;8.050;2023-02-01T01:16:20;5.90;99.90
35258;DHT22;21385;50.878;8.050;2023-02-01T01:18:47;5.90;99.90
35258;DHT22;21385;50.878;8.050;2023-02-01T01:21:14;5.90;99.90
35258;DHT22;21385;50.878;8.050;2023-02-01T01:23:40;5.90;99.90
35258;DHT22;21385;50.878;8.050;2023-02-01T01:26:11;6.00;99.90
35258;DHT22;21385;50.878;8.050;2023-02-01T01:28:38;6.00;99.90
35258;DHT22;21385;50.878;8.050;2023-02-01T01:31:03;6.00;99.90
35258;DHT22;21385;50.878;8.050;2023-02-01T01:33:29;6.00;99.90
35258;DHT22;21385;50.878;8.050;2023-02-01T01:35:55;5.90;99.90
35258;DHT22;21385;50.878;8.050;2023-02-01T01:38:21;5.90;99.90
35258;DHT22;21385;50.878;8.050;2023-02-01T01:40:47;5.90;99.90
35258;DHT22;21385;50.878;8.050;2023-02-01T01:43:14;5.90;99.90
35258;DHT22;21385;50.878;8.050;2023-02-01T01:45:40;5.90;99.90
35258;DHT22;21385;50.878;8.050;2023-02-01T01:48:13;5.90;99.90
35258;DHT22;21385;50.878;8.050;2023-02-01T01:50:46;5.90;99.90
35258;DHT22;21385;50.878;8.050;2023-02-01T01:53:18;5.80;99.90
35258;DHT22;21385;50.878;8.050;2023-02-01T01:55:45;5.80;99.90
35258;DHT22;21385;50.878;8.050;2023-02-01T01:58:16;5.80;99.90
35258;DHT22;21385;50.878;8.050;2023-02-01T02:00:43;5.90;99.90
35258;DHT22;21385;50.878;8.050;2023-02-01T02:05:48;5.80;99.90
35258;DHT22;21385;50.878;8.050;2023-02-01T02:08:14;5.80;99.90
35258;DHT22;21385;50.878;8.050;2023-02-01T02:10:40;5.80;99.90
35258;DHT22;21385;50.878;8.050;2023-02-01T02:13:25;5.80;99.90
35258;DHT22;21385;50.878;8.050;2023-02-01T02:18:44;5.90;99.90
35258;DHT22;21385;50.878;8.050;2023-02-01T02:32:11;5.80;99.90
35258;DHT22;21385;50.878;8.050;2023-02-01T02:34:53;5.80;99.90
35258;DHT22;21385;50.878;8.050;2023-02-01T02:40:21;5.80;99.90
35258;DHT22;21385;50.878;8.050;2023-02-01T02:45:46;5.70;99.90
35258;DHT22;21385;50.878;8.050;2023-02-01T02:48:42;5.80;99.90
35258;DHT22;21385;50.878;8.050;2023-02-01T02:51:15;5.80;99.90
35258;DHT22;21385;50.878;8.050;2023-02-01T02:56:49;5.90;99.90
35258;DHT22;21385;50.878;8.050;2023-02-01T02:59:34;5.90;99.90
35258;DHT22;21385;50.878;8.050;2023-02-01T03:02:20;5.90;99.90
35258;DHT22;21385;50.878;8.050;2023-02-01T03:05:05;5.90;99.90
35258;DHT22;21385;50.878;8.050;2023-02-01T03:13:09;5.80;99.90
35258;DHT22;21385;50.878;8.050;2023-02-01T03:15:51;5.80;99.90
35258;DHT22;21385;50.878;8.050;2023-02-01T03:18:31;5.80;99.90
35258;DHT22;21385;50.878;8.050;2023-02-01T03:21:00;5.70;99.90
35258;DHT22;21385;50.878;8.050;2023-02-01T03:23:31;5.60;99.90
35258;DHT22;21385;50.878;8.050;2023-02-01T03:25:59;5.70;99.90
35258;DHT22;21385;50.878;8.050;2023-02-01T03:28:28;5.70;99.90
35258;DHT22;21385;50.878;8.050;2023-02-01T03:30:54;5.70;99.90
35258;DHT22;21385;50.878;8.050;2023-02-01T03:33:23;5.70;99.90
35258;DHT22;21385;50.878;8.050;2023-02-01T03:43:37;5.70;99.90
35258;DHT22;21385;50.878;8.050;2023-02-01T03:46:10;5.60;99.90
35258;DHT22;21385;50.878;8.050;2023-02-01T03:48:38;5.50;99.90
35258;DHT22;21385;50.878;8.050;2023-02-01T03:51:05;5.50;99.90
35258;DHT22;21385;50.878;8.050;2023-02-01T03:53:33;5.50;99.90
35258;DHT22;21385;50.878;8.050;2023-02-01T03:56:02;5.40;99.90
35258;DHT22;21385;50.878;8.050;2023-02-01T03:58:27;5.40;99.90
35258;DHT22;21385;50.878;8.050;2023-02-01T04:00:58;5.30;99.90
35258;DHT22;21385;50.878;8.050;2023-02-01T04:03:25;5.40;99.90
35258;DHT22;21385;50.878;8.050;2023-02-01T04:05:51;5.40;99.90
35258;DHT22;21385;50.878;8.050;2023-02-01T04:08:21;5.40;99.90
35258;DHT22;21385;50.878;8.050;2023-02-01T04:10:47;5.40;99.90
35258;DHT22;21385;50.878;8.050;2023-02-01T04:13:13;5.30;99.90
35258;DHT22;21385;50.878;8.050;2023-02-01T04:15:38;5.30;99.90
35258;DHT22;21385;50.878;8.050;2023-02-01T04:18:04;5.30;99.90
35258;DHT22;21385;50.878;8.050;2023-02-01T04:20:30;5.30;99.90
35258;DHT22;21385;50.878;8.050;2023-02-01T04:22:56;5.20;99.90
35258;DHT22;21385;50.878;8.050;2023-02-01T04:25:21;5.30;99.90
35258;DHT22;21385;50.878;8.050;2023-02-01T04:27:47;5.30;99.90
35258;DHT22;21385;50.878;8.050;2023-02-01T04:30:13;5.30;99.90
35258;DHT22;21385;50.878;8.050;2023-02-01T04:32:39;5.30;99.90
35258;DHT22;21385;50.878;8.050;2023-02-01T04:35:06;5.30;99.90
35258;DHT22;21385;50.878;8.050;2023-02-01T04:37:31;5.30;99.90
35258;DHT22;21385;50.878;8.050;2023-02-01T04:39:57;5.30;99.90
35258;DHT22;21385;50.878;8.050;2023-02-01T04:42:22;5.30;99.90
35258;DHT22;21385;50.878;8.050;2023-02-01T04:44:48;5.30;99.90
35258;DHT22;21385;50.878;8.050;2023-02-01T04:47:14;5.30;99.90
35258;DHT22;21385;50.878;8.050;2023-02-01T04:49:41;5.30;99.90
35258;DHT22;21385;50.878;8.050;2023-02-01T04:52:06;5.20;99.90
35258;DHT22;21385;50.878;8.050;2023-02-01T04:54:32;5.20;99.90
35258;DHT22;21385;50.878;8.050;2023-02-01T04:56:57;5.20;99.90
35258;DHT22;21385;50.878;8.050;2023-02-01T04:59:23;5.20;99.90
35258;DHT22;21385;50.878;8.050;2023-02-01T05:01:48;5.20;99.90
35258;DHT22;21385;50.878;8.050;2023-02-01T05:04:14;5.10;99.90
35258;DHT22;21385;50.878;8.050;2023-02-01T05:06:40;5.20;99.90
35258;DHT22;21385;50.878;8.050;2023-02-01T05:09:05;5.20;99.90
35258;DHT22;21385;50.878;8.050;2023-02-01T05:11:31;5.20;99.90
35258;DHT22;21385;50.878;8.050;2023-02-01T05:14:15;5.20;99.90
35258;DHT22;21385;50.878;8.050;2023-02-01T05:16:41;5.10;99.90
35258;DHT22;21385;50.878;8.050;2023-02-01T05:19:06;5.20;99.90
35258;DHT22;21385;50.878;8.050;2023-02-01T05:21:32;5.20;99.90
35258;DHT22;21385;50.878;8.050;2023-02-01T05:23:57;5.10;99.90
35258;DHT22;21385;50.878;8.050;2023-02-01T05:26:35;5.10;99.90
35258;DHT22;21385;50.878;8.050;2023-02-01T05:29:01;5.10;99.90
35258;DHT22;21385;50.878;8.050;2023-02-01T05:31:26;5.10;99.90
35258;DHT22;21385;50.878;8.050;2023-02-01T05:33:52;5.10;99.90
35258;DHT22;21385;50.878;8.050;2023-02-01T05:36:18;5.10;99.90
35258;DHT22;21385;50.878;8.050;2023-02-01T05:38:43;5.10;99.90
35258;DHT22;21385;50.878;8.050;2023-02-01T05:41:09;5.10;99.90
35258;DHT22;21385;50.878;8.050;2023-02-01T05:43:34;5.10;99.90
35258;DHT22;21385;50.878;8.050;2023-02-01T05:46:00;5.00;99.90
35258;DHT22;21385;50.878;8.050;2023-02-01T05:48:26;5.00;99.90
35258;DHT22;21385;50.878;8.050;2023-02-01T05:50:52;5.10;99.90
35258;DHT22;21385;50.878;8.050;2023-02-01T05:53:17;5.10;99.90
35258;DHT22;21385;50.878;8.050;2023-02-01T05:55:43;5.10;99.90
35258;DHT22;21385;50.878;8.050;2023-02-01T05:58:08;5.10;99.90
35258;DHT22;21385;50.878;8.050;2023-02-01T06:00:34;5.10;99.90
35258;DHT22;21385;50.878;8.050;2023-02-01T06:03:00;5.10;99.90
35258;DHT22;21385;50.878;8.050;2023-02-01T06:05:25;5.10;99.90
35258;DHT22;21385;50.878;8.050;2023-02-01T06:07:52;5.00;99.90
35258;DHT22;21385;50.878;8.050;2023-02-01T06:10:18;5.10;99.90
35258;DHT22;21385;50.878;8.050;2023-02-01T06:12:44;5.10;99.90
35258;DHT22;21385;50.878;8.050;2023-02-01T06:15:13;5.00;99.90
35258;DHT22;21385;50.878;8.050;2023-02-01T06:17:44;5.10;99.90
35258;DHT22;21385;50.878;8.050;2023-02-01T06:20:12;5.10;99.90
35258;DHT22;21385;50.878;8.050;2023-02-01T06:22:38;5.10;99.90
35258;DHT22;21385;50.878;8.050;2023-02-01T06:25:05;5.20;99.90
35258;DHT22;21385;50.878;8.050;2023-02-01T06:27:32;5.20;99.90
35258;DHT22;21385;50.878;8.050;2023-02-01T06:29:57;5.20;99.90
35258;DHT22;21385;50.878;8.050;2023-02-01T06:32:23;5.20;99.90
35258;DHT22;21385;50.878;8.050;2023-02-01T06:34:49;5.30;99.90
35258;DHT22;21385;50.878;8.050;2023-02-01T06:37:15;5.30;99.90
35258;DHT22;21385;50.878;8.050;2023-02-01T06:39:40;5.30;99.90
35258;DHT22;21385;50.878;8.050;2023-02-01T06:42:06;5.20;99.90
35258;DHT22;21385;50.878;8.050;2023-02-01T06:44:32;5.30;99.90
35258;DHT22;21385;50.878;8.050;2023-02-01T06:46:57;5.20;99.90
35258;DHT22;21385;50.878;8.050;2023-02-01T06:49:23;5.20;99.90
35258;DHT22;21385;50.878;8.050;2023-02-01T06:51:48;5.30;99.90
35258;DHT22;21385;50.878;8.050;2023-02-01T06:54:14;5.20;99.90
35258;DHT22;21385;50.878;8.050;2023-02-01T06:56:40;5.30;99.90
35258;DHT22;21385;50.878;8.050;2023-02-01T06:59:06;5.20;99.90
35258;DHT22;21385;50.878;8.050;2023-02-01T07:01:33;5.20;99.90
35258;DHT22;21385;50.878;8.050;2023-02-01T07:03:58;5.20;99.90
35258;DHT22;21385;50.878;8.050;2023-02-01T07:06:24;5.20;99.90
35258;DHT22;21385;50.878;8.050;2023-02-01T07:08:50;5.20;99.90
35258;DHT22;21385;50.878;8.050;2023-02-01T07:11:16;5.20;99.90
35258;DHT22;21385;50.878;8.050;2023-02-01T07:13:42;5.20;99.90
35258;DHT22;21385;50.878;8.050;2023-02-01T07:16:13;5.20;99.90
35258;DHT22;21385;50.878;8.050;2023-02-01T07:18:39;5.20;99.90
35258;DHT22;21385;50.878;8.050;2023-02-01T07:21:05;5.20;99.90
35258;DHT22;21385;50.878;8.050;2023-02-01T07:23:31;5.20;99.90
35258;DHT22;21385;50.878;8.050;2023-02-01T07:25:58;5.20;99.90
35258;DHT22;21385;50.878;8.050;2023-02-01T07:28:24;5.20;99.90
35258;DHT22;21385;50.878;8.050;2023-02-01T07:30:50;5.10;99.90
35258;DHT22;21385;50.878;8.050;2023-02-01T07:33:22;5.20;99.90
35258;DHT22;21385;50.878;8.050;2023-02-01T07:35:49;5.20;99.90
35258;DHT22;21385;50.878;8.050;2023-02-01T07:38:16;5.20;99.90
35258;DHT22;21385;50.878;8.050;2023-02-01T07:40:41;5.20;99.90
35258;DHT22;21385;50.878;8.050;2023-02-01T07:43:07;5.20;99.90
35258;DHT22;21385;50.878;8.050;2023-02-01T07:45:34;5.20;99.90
35258;DHT22;21385;50.878;8.050;2023-02-01T07:48:00;5.20;99.90
35258;DHT22;21385;50.878;8.050;2023-02-01T07:52:53;5.20;99.90
35258;DHT22;21385;50.878;8.050;2023-02-01T07:55:19;5.10;99.90
35258;DHT22;21385;50.878;8.050;2023-02-01T07:57:45;5.20;99.90
35258;DHT22;21385;50.878;8.050;2023-02-01T08:00:11;5.20;99.90
35258;DHT22;21385;50.878;8.050;2023-02-01T08:02:59;5.20;99.90
35258;DHT22;21385;50.878;8.050;2023-02-01T08:05:25;5.20;99.90
35258;DHT22;21385;50.878;8.050;2023-02-01T08:07:51;5.20;99.90
35258;DHT22;21385;50.878;8.050;2023-02-01T08:10:17;5.20;99.90
35258;DHT22;21385;50.878;8.050;2023-02-01T08:12:44;5.20;99.90
35258;DHT22;21385;50.878;8.050;2023-02-01T08:15:14;5.20;99.90
35258;DHT22;21385;50.878;8.050;2023-02-01T08:17:45;5.20;99.90
35258;DHT22;21385;50.878;8.050;2023-02-01T08:20:11;5.20;99.90
35258;DHT22;21385;50.878;8.050;2023-02-01T08:22:38;5.20;99.90
35258;DHT22;21385;50.878;8.050;2023-02-01T08:25:04;5.20;99.90
35258;DHT22;21385;50.878;8.050;2023-02-01T08:27:32;5.20;99.90
35258;DHT22;21385;50.878;8.050;2023-02-01T08:29:58;5.10;99.90
35258;DHT22;21385;50.878;8.050;2023-02-01T08:32:24;5.10;99.90
35258;DHT22;21385;50.878;8.050;2023-02-01T08:34:50;5.10;99.90
35258;DHT22;21385;50.878;8.050;2023-02-01T08:37:15;5.10;99.90
35258;DHT22;21385;50.878;8.050;2023-02-01T08:39:41;5.10;99.90
35258;DHT22;21385;50.878;8.050;2023-02-01T08:42:08;5.10;99.90
35258;DHT22;21385;50.878;8.050;2023-02-01T08:44:53;5.10;99.90
35258;DHT22;21385;50.878;8.050;2023-02-01T08:47:18;5.10;99.90
35258;DHT22;21385;50.878;8.050;2023-02-01T08:49:44;5.10;99.90
35258;DHT22;21385;50.878;8.050;2023-02-01T08:52:09;5.10;99.90
35258;DHT22;21385;50.878;8.050;2023-02-01T08:54:35;5.10;99.90
35258;DHT22;21385;50.878;8.050;2023-02-01T08:57:00;5.10;99.90
35258;DHT22;21385;50.878;8.050;2023-02-01T08:59:26;5.10;99.90
35258;DHT22;21385;50.878;8.050;2023-02-01T09:01:51;5.10;99.90
35258;DHT22;21385;50.878;8.050;2023-02-01T09:04:17;5.10;99.90
35258;DHT22;21385;50.878;8.050;2023-02-01T09:06:42;5.10;99.90
35258;DHT22;21385;50.878;8.050;2023-02-01T09:09:08;5.10;99.90
35258;DHT22;21385;50.878;8.050;2023-02-01T09:11:34;5.20;99.90
35258;DHT22;21385;50.878;8.050;2023-02-01T09:13:59;5.10;99.90
35258;DHT22;21385;50.878;8.050;2023-02-01T09:16:25;5.10;99.90
35258;DHT22;21385;50.878;8.050;2023-02-01T09:18:50;5.10;99.90
35258;DHT22;21385;50.878;8.050;2023-02-01T09:21:16;5.10;99.90
35258;DHT22;21385;50.878;8.050;2023-02-01T09:23:42;5.10;99.90
35258;DHT22;21385;50.878;8.050;2023-02-01T09:26:08;5.20;99.90
35258;DHT22;21385;50.878;8.050;2023-02-01T09:28:34;5.20;99.90
35258;DHT22;21385;50.878;8.050;2023-02-01T09:31:01;5.20;99.90
35258;DHT22;21385;50.878;8.050;2023-02-01T09:33:27;5.20;99.90
35258;DHT22;21385;50.878;8.050;2023-02-01T09:35:58;5.30;99.90
35258;DHT22;21385;50.878;8.050;2023-02-01T09:38:23;5.40;99.90
35258;DHT22;21385;50.878;8.050;2023-02-01T09:40:51;5.30;99.90
35258;DHT22;21385;50.878;8.050;2023-02-01T09:46:23;5.30;99.90
35258;DHT22;21385;50.878;8.050;2023-02-01T09:48:55;5.30;99.90
35258;DHT22;21385;50.878;8.050;2023-02-01T09:51:36;5.30;99.90
35258;DHT22;21385;50.878;8.050;2023-02-01T09:54:27;5.30;99.90
35258;DHT22;21385;50.878;8.050;2023-02-01T09:57:01;5.30;99.90
35258;DHT22;21385;50.878;8.050;2023-02-01T10:02:16;5.30;99.90
35258;DHT22;21385;50.878;8.050;2023-02-01T10:04:43;5.30;99.90
35258;DHT22;21385;50.878;8.050;2023-02-01T10:09:54;5.30;99.90
35258;DHT22;21385;50.878;8.050;2023-02-01T10:17:59;5.20;99.90
35258;DHT22;21385;50.878;8.050;2023-02-01T10:20:28;5.20;99.90
35258;DHT22;21385;50.878;8.050;2023-02-01T10:25:55;5.30;99.90
35258;DHT22;21385;50.878;8.050;2023-02-01T10:28:22;5.30;99.90
35258;DHT22;21385;50.878;8.050;2023-02-01T10:30:53;5.30;99.90
35258;DHT22;21385;50.878;8.050;2023-02-01T10:33:26;5.40;99.90
35258;DHT22;21385;50.878;8.050;2023-02-01T10:36:10;5.40;99.90
35258;DHT22;21385;50.878;8.050;2023-02-01T10:38:39;5.50;99.90
35258;DHT22;21385;50.878;8.050;2023-02-01T10:41:32;5.50;99.90
35258;DHT22;21385;50.878;8.050;2023-02-01T10:44:00;5.60;99.90
35258;DHT22;21385;50.878;8.050;2023-02-01T10:46:30;5.60;99.90
35258;DHT22;21385;50.878;8.050;2023-02-01T10:48:58;5.50;99.90
35258;DHT22;21385;50.878;8.050;2023-02-01T10:51:51;5.50;99.90
35258;DHT22;21385;50.878;8.050;2023-02-01T10:54:31;5.40;99.90
35258;DHT22;21385;50.878;8.050;2023-02-01T10:56:57;5.40;99.90
35258;DHT22;21385;50.878;8.050;2023-02-01T10:59:29;5.40;99.90
35258;DHT22;21385;50.878;8.050;2023-02-01T11:02:05;5.50;99.90
35258;DHT22;21385;50.878;8.050;2023-02-01T11:04:38;5.40;99.90
35258;DHT22;21385;50.878;8.050;2023-02-01T11:07:23;5.50;99.90
35258;DHT22;21385;50.878;8.050;2023-02-01T11:09:51;5.40;99.90
35258;DHT22;21385;50.878;8.050;2023-02-01T11:12:33;5.70;99.90
35258;DHT22;21385;50.878;8.050;2023-02-01T11:15:21;5.60;99.90
35258;DHT22;21385;50.878;8.050;2023-02-01T11:17:49;5.70;99.90
35258;DHT22;21385;50.878;8.050;2023-02-01T11:22:58;5.70;99.90
35258;DHT22;21385;50.878;8.050;2023-02-01T11:25:24;5.70;99.90
35258;DHT22;21385;50.878;8.050;2023-02-01T11:27:53;5.70;99.90
35258;DHT22;21385;50.878;8.050;2023-02-01T11:30:28;5.60;99.90
35258;DHT22;21385;50.878;8.050;2023-02-01T11:32:56;5.50;99.90
35258;DHT22;21385;50.878;8.050;2023-02-01T11:35:23;5.60;99.90
35258;DHT22;21385;50.878;8.050;2023-02-01T11:38:00;5.70;99.90
35258;DHT22;21385;50.878;8.050;2023-02-01T11:40:28;5.80;99.90
35258;DHT22;21385;50.878;8.050;2023-02-01T11:42:57;5.80;99.90
35258;DHT22;21385;50.878;8.050;2023-02-01T11:45:33;5.90;99.90
35258;DHT22;21385;50.878;8.050;2023-02-01T11:48:00;5.90;99.90
35258;DHT22;21385;50.878;8.050;2023-02-01T11:51:07;5.90;99.90
35258;DHT22;21385;50.878;8.050;2023-02-01T11:59:26;5.80;99.90
35258;DHT22;21385;50.878;8.050;2023-02-01T12:10:45;5.90;99.90
35258;DHT22;21385;50.878;8.050;2023-02-01T12:16:07;6.10;99.90
35258;DHT22;21385;50.878;8.050;2023-02-01T12:18:48;6.00;99.90
35258;DHT22;21385;50.878;8.050;2023-02-01T12:30:18;6.00;99.90
35258;DHT22;21385;50.878;8.050;2023-02-01T12:38:19;6.10;99.90
35258;DHT22;21385;50.878;8.050;2023-02-01T12:43:45;6.20;99.90
35258;DHT22;21385;50.878;8.050;2023-02-01T12:46:22;6.20;99.90
35258;DHT22;21385;50.878;8.050;2023-02-01T12:49:05;6.30;99.90
35258;DHT22;21385;50.878;8.050;2023-02-01T12:51:40;6.30;99.90
35258;DHT22;21385;50.878;8.050;2023-02-01T12:54:15;6.20;99.90
35258;DHT22;21385;50.878;8.050;2023-02-01T12:56:48;6.10;99.90
35258;DHT22;21385;50.878;8.050;2023-02-01T12:59:24;6.10;99.90
35258;DHT22;21385;50.878;8.050;2023-02-01T13:02:05;6.00;99.90
35258;DHT22;21385;50.878;8.050;2023-02-01T13:04:42;5.90;99.90
35258;DHT22;21385;50.878;8.050;2023-02-01T13:07:17;5.90;99.90
35258;DHT22;21385;50.878;8.050;2023-02-01T13:09:57;5.80;99.90
35258;DHT22;21385;50.878;8.050;2023-02-01T13:12:30;5.80;99.90
35258;DHT22;21385;50.878;8.050;2023-02-01T13:15:05;5.80;99.90
35258;DHT22;21385;50.878;8.050;2023-02-01T13:17:37;5.80;99.90
35258;DHT22;21385;50.878;8.050;2023-02-01T13:20:13;5.80;99.90
35258;DHT22;21385;50.878;8.050;2023-02-01T13:22:43;5.80;99.90
35258;DHT22;21385;50.878;8.050;2023-02-01T13:27:36;5.80;99.90
35258;DHT22;21385;50.878;8.050;2023-02-01T13:30:14;5.80;99.90
35258;DHT22;21385;50.878;8.050;2023-02-01T13:38:22;5.80;99.90
35258;DHT22;21385;50.878;8.050;2023-02-01T13:43:45;5.80;99.90
35258;DHT22;21385;50.878;8.050;2023-02-01T13:46:13;5.80;99.90
35258;DHT22;21385;50.878;8.050;2023-02-01T13:48:53;5.80;99.90
35258;DHT22;21385;50.878;8.050;2023-02-01T13:54:07;5.70;99.90
35258;DHT22;21385;50.878;8.050;2023-02-01T13:56:41;5.60;99.90
35258;DHT22;21385;50.878;8.050;2023-02-01T14:03:08;5.70;99.90
35258;DHT22;21385;50.878;8.050;2023-02-01T14:26:43;5.40;99.90
35258;DHT22;21385;50.878;8.050;2023-02-01T14:36:52;5.40;99.90
35258;DHT22;21385;50.878;8.050;2023-02-01T14:39:23;5.30;99.90
35258;DHT22;21385;50.878;8.050;2023-02-01T14:41:54;5.30;99.90
35258;DHT22;21385;50.878;8.050;2023-02-01T14:44:27;5.30;99.90
35258;DHT22;21385;50.878;8.050;2023-02-01T14:47:03;5.30;99.90
35258;DHT22;21385;50.878;8.050;2023-02-01T14:49:32;5.30;99.90
35258;DHT22;21385;50.878;8.050;2023-02-01T14:51:59;5.30;99.90
35258;DHT22;21385;50.878;8.050;2023-02-01T14:54:25;5.30;99.90
35258;DHT22;21385;50.878;8.050;2023-02-01T14:56:53;5.30;99.90
35258;DHT22;21385;50.878;8.050;2023-02-01T14:59:21;5.30;99.90
35258;DHT22;21385;50.878;8.050;2023-02-01T15:01:55;5.30;99.90
35258;DHT22;21385;50.878;8.050;2023-02-01T15:04:25;5.30;99.90
35258;DHT22;21385;50.878;8.050;2023-02-01T15:07:05;5.40;99.90
35258;DHT22;21385;50.878;8.050;2023-02-01T15:09:38;5.40;99.90
35258;DHT22;21385;50.878;8.050;2023-02-01T15:12:05;5.40;99.90
35258;DHT22;21385;50.878;8.050;2023-02-01T15:14:34;5.40;99.90
35258;DHT22;21385;50.878;8.050;2023-02-01T15:17:01;5.40;99.90
35258;DHT22;21385;50.878;8.050;2023-02-01T15:19:29;5.40;99.90
35258;DHT22;21385;50.878;8.050;2023-02-01T15:21:56;5.40;99.90
35258;DHT22;21385;50.878;8.050;2023-02-01T15:24:27;5.40;99.90
35258;DHT22;21385;50.878;8.050;2023-02-01T15:26:55;5.50;99.90
35258;DHT22;21385;50.878;8.050;2023-02-01T15:29:23;5.50;99.90
35258;DHT22;21385;50.878;8.050;2023-02-01T15:31:53;5.60;99.90
35258;DHT22;21385;50.878;8.050;2023-02-01T15:34:20;5.60;99.90
35258;DHT22;21385;50.878;8.050;2023-02-01T15:36:46;5.60;99.90
35258;DHT22;21385;50.878;8.050;2023-02-01T15:39:23;5.60;99.90
35258;DHT22;21385;50.878;8.050;2023-02-01T15:46:57;5.60;99.90
35258;DHT22;21385;50.878;8.050;2023-02-01T15:49:27;5.60;99.90
35258;DHT22;21385;50.878;8.050;2023-02-01T15:51:54;5.60;99.90
35258;DHT22;21385;50.878;8.050;2023-02-01T15:54:24;5.60;99.90
35258;DHT22;21385;50.878;8.050;2023-02-01T15:56:55;5.60;99.90
35258;DHT22;21385;50.878;8.050;2023-02-01T15:59:29;5.60;99.90
35258;DHT22;21385;50.878;8.050;2023-02-01T16:01:56;5.60;99.90
35258;DHT22;21385;50.878;8.050;2023-02-01T16:04:24;5.50;99.90
35258;DHT22;21385;50.878;8.050;2023-02-01T16:07:01;5.60;99.90
35258;DHT22;21385;50.878;8.050;2023-02-01T16:09:41;5.50;99.90
35258;DHT22;21385;50.878;8.050;2023-02-01T16:12:45;5.60;99.90
35258;DHT22;21385;50.878;8.050;2023-02-01T16:15:11;5.60;99.90
35258;DHT22;21385;50.878;8.050;2023-02-01T16:17:37;5.70;99.90
35258;DHT22;21385;50.878;8.050;2023-02-01T16:20:02;5.60;99.90
35258;DHT22;21385;50.878;8.050;2023-02-01T16:22:28;5.60;99.90
35258;DHT22;21385;50.878;8.050;2023-02-01T16:24:56;5.60;99.90
35258;DHT22;21385;50.878;8.050;2023-02-01T16:27:22;5.70;99.90
35258;DHT22;21385;50.878;8.050;2023-02-01T16:29:48;5.60;99.90
35258;DHT22;21385;50.878;8.050;2023-02-01T16:32:19;5.70;99.90
35258;DHT22;21385;50.878;8.050;2023-02-01T16:34:46;5.60;99.90
35258;DHT22;21385;50.878;8.050;2023-02-01T16:37:19;5.60;99.90
35258;DHT22;21385;50.878;8.050;2023-02-01T16:39:45;5.60;99.90
35258;DHT22;21385;50.878;8.050;2023-02-01T16:42:12;5.60;99.90
35258;DHT22;21385;50.878;8.050;2023-02-01T16:44:39;5.60;99.90
35258;DHT22;21385;50.878;8.050;2023-02-01T16:47:11;5.60;99.90
35258;DHT22;21385;50.878;8.050;2023-02-01T16:49:41;5.60;99.90
35258;DHT22;21385;50.878;8.050;2023-02-01T16:52:28;5.60;99.90
35258;DHT22;21385;50.878;8.050;2023-02-01T16:54:53;5.70;99.90
35258;DHT22;21385;50.878;8.050;2023-02-01T16:57:20;5.80;99.90
35258;DHT22;21385;50.878;8.050;2023-02-01T16:59:48;5.80;99.90
35258;DHT22;21385;50.878;8.050;2023-02-01T17:02:18;5.80;99.90
35258;DHT22;21385;50.878;8.050;2023-02-01T17:04:47;5.80;99.90
35258;DHT22;21385;50.878;8.050;2023-02-01T17:07:17;5.80;99.90
35258;DHT22;21385;50.878;8.050;2023-02-01T17:09:44;5.90;99.90
35258;DHT22;21385;50.878;8.050;2023-02-01T17:12:30;5.90;99.90
35258;DHT22;21385;50.878;8.050;2023-02-01T17:14:58;5.90;99.90
35258;DHT22;21385;50.878;8.050;2023-02-01T17:17:27;5.80;99.90
35258;DHT22;21385;50.878;8.050;2023-02-01T17:19:55;5.80;99.90
35258;DHT22;21385;50.878;8.050;2023-02-01T17:22:23;5.90;99.90
35258;DHT22;21385;50.878;8.050;2023-02-01T17:24:49;6.00;99.90
35258;DHT22;21385;50.878;8.050;2023-02-01T17:27:16;6.00;99.90
35258;DHT22;21385;50.878;8.050;2023-02-01T17:29:42;6.00;99.90
35258;DHT22;21385;50.878;8.050;2023-02-01T17:32:17;6.00;99.90
35258;DHT22;21385;50.878;8.050;2023-02-01T17:34:43;6.00;99.90
35258;DHT22;21385;50.878;8.050;2023-02-01T17:37:38;6.00;99.90
35258;DHT22;21385;50.878;8.050;2023-02-01T17:40:04;5.90;99.90
35258;DHT22;21385;50.878;8.050;2023-02-01T17:42:30;5.80;99.90
35258;DHT22;21385;50.878;8.050;2023-02-01T17:45:01;5.80;99.90
35258;DHT22;21385;50.878;8.050;2023-02-01T17:47:27;5.80;99.90
35258;DHT22;21385;50.878;8.050;2023-02-01T17:49:53;5.80;99.90
35258;DHT22;21385;50.878;8.050;2023-02-01T17:52:22;5.70;99.90
35258;DHT22;21385;50.878;8.050;2023-02-01T17:54:48;5.60;99.90
35258;DHT22;21385;50.878;8.050;2023-02-01T17:57:15;5.70;99.90
35258;DHT22;21385;50.878;8.050;2023-02-01T17:59:41;5.70;99.90
35258;DHT22;21385;50.878;8.050;2023-02-01T18:02:20;5.70;99.90
35258;DHT22;21385;50.878;8.050;2023-02-01T18:04:46;5.70;99.90
35258;DHT22;21385;50.878;8.050;2023-02-01T18:07:12;5.70;99.90
35258;DHT22;21385;50.878;8.050;2023-02-01T18:09:37;5.80;99.90
35258;DHT22;21385;50.878;8.050;2023-02-01T18:12:04;5.80;99.90
35258;DHT22;21385;50.878;8.050;2023-02-01T18:14:30;5.80;99.90
35258;DHT22;21385;50.878;8.050;2023-02-01T18:16:55;5.80;99.90
35258;DHT22;21385;50.878;8.050;2023-02-01T18:19:21;5.90;99.90
35258;DHT22;21385;50.878;8.050;2023-02-01T18:21:46;5.90;99.90
35258;DHT22;21385;50.878;8.050;2023-02-01T18:24:14;6.00;99.90